WMT1Z LATI-LEXJ
Flight info
| Callsign | WMT1Z |
|---|---|
| Flight time | N/A |
| Altitude | 36000 |
| Route | DIRES DCT ASPIR DCT TIMOV DCT MIRSA A3 RUBIT G7 OB DCT PADKO UY342 BULTO Y341 SALIN Y25 FJR DCT DEGOL DCT MAGEC DCT DOSUL N75 XORNA |
| Aircraft | A21N/M-SDE1E2E3FGIJ1J4RWXY/LB1 |
Departure
| Time | N/A |
|---|---|
| Airport | Tirana International Airport Mother Teresa (LATI) |
Arrival
| Time | 2026-05-07 17:46 |
|---|---|
| Airport | Seve Ballesteros-Santander Airport (LEXJ) |
| Time | Latitude | Longitude | Altitude | Speed | Heading |
|---|---|---|---|---|---|
| 2026-05-07 17:29 | 43.38886 | -3.65984 | 3509 ft | 262 kts | 86° |
| 2026-05-07 17:29 | 43.39118 | -3.63478 | 3306 ft | 261 kts | 76° |
| 2026-05-07 17:29 | 43.39920 | -3.61291 | 3096 ft | 261 kts | 47° |
| 2026-05-07 17:30 | 43.41383 | -3.59843 | 2961 ft | 260 kts | 25° |
| 2026-05-07 17:30 | 43.43048 | -3.58922 | 2950 ft | 253 kts | 19° |
| 2026-05-07 17:30 | 43.44651 | -3.58165 | 2942 ft | 237 kts | 18° |
| 2026-05-07 17:30 | 43.46180 | -3.57465 | 2942 ft | 228 kts | 18° |
| 2026-05-07 17:31 | 43.47669 | -3.56788 | 2944 ft | 228 kts | 17° |
| 2026-05-07 17:31 | 43.49234 | -3.56551 | 2925 ft | 227 kts | 345° |
| 2026-05-07 17:31 | 43.50546 | -3.57675 | 2939 ft | 228 kts | 307° |
| 2026-05-07 17:31 | 43.51175 | -3.59654 | 2944 ft | 226 kts | 276° |
| 2026-05-07 17:32 | 43.51102 | -3.61802 | 2952 ft | 226 kts | 263° |
| 2026-05-07 17:32 | 43.51232 | -3.63941 | 2927 ft | 226 kts | 295° |
| 2026-05-07 17:32 | 43.52298 | -3.65491 | 2936 ft | 226 kts | 336° |
| 2026-05-07 17:32 | 43.53819 | -3.65703 | 2941 ft | 226 kts | 17° |
| 2026-05-07 17:33 | 43.55186 | -3.64692 | 2952 ft | 226 kts | 40° |
| 2026-05-07 17:33 | 43.56501 | -3.63528 | 2970 ft | 226 kts | 10° |
| 2026-05-07 17:33 | 43.58033 | -3.63746 | 2969 ft | 226 kts | 342° |
| 2026-05-07 17:33 | 43.59497 | -3.64547 | 2954 ft | 226 kts | 329° |
| 2026-05-07 17:34 | 43.60594 | -3.66044 | 2946 ft | 226 kts | 300° |
| 2026-05-07 17:34 | 43.61200 | -3.68068 | 2949 ft | 226 kts | 285° |
| 2026-05-07 17:34 | 43.61560 | -3.70167 | 2948 ft | 227 kts | 282° |
| 2026-05-07 17:34 | 43.61890 | -3.72395 | 2944 ft | 234 kts | 281° |
| 2026-05-07 17:35 | 43.62190 | -3.74548 | 2943 ft | 226 kts | 279° |
| 2026-05-07 17:35 | 43.62302 | -3.76711 | 2923 ft | 226 kts | 262° |
| 2026-05-07 17:35 | 43.62024 | -3.78844 | 2818 ft | 224 kts | 258° |
| 2026-05-07 17:35 | 43.61749 | -3.80957 | 2892 ft | 226 kts | 261° |
| 2026-05-07 17:36 | 43.61525 | -3.83096 | 2922 ft | 226 kts | 262° |
| 2026-05-07 17:36 | 43.61309 | -3.85258 | 2935 ft | 225 kts | 262° |
| 2026-05-07 17:36 | 43.61100 | -3.87368 | 2942 ft | 223 kts | 262° |
| 2026-05-07 17:36 | 43.60889 | -3.89497 | 2944 ft | 224 kts | 262° |
| 2026-05-07 17:37 | 43.60680 | -3.91614 | 2846 ft | 224 kts | 262° |
| 2026-05-07 17:37 | 43.60469 | -3.93739 | 2721 ft | 223 kts | 262° |
| 2026-05-07 17:37 | 43.60258 | -3.95867 | 2595 ft | 223 kts | 262° |
| 2026-05-07 17:37 | 43.60046 | -3.98000 | 2470 ft | 222 kts | 262° |
| 2026-05-07 17:38 | 43.59839 | -4.00084 | 2345 ft | 222 kts | 262° |
| 2026-05-07 17:38 | 43.59627 | -4.02213 | 2218 ft | 222 kts | 262° |
| 2026-05-07 17:38 | 43.59297 | -4.04267 | 2139 ft | 221 kts | 243° |
| 2026-05-07 17:38 | 43.58372 | -4.05837 | 2138 ft | 206 kts | 220° |
| 2026-05-07 17:39 | 43.57293 | -4.06968 | 2212 ft | 187 kts | 215° |
| 2026-05-07 17:39 | 43.56230 | -4.07980 | 2178 ft | 185 kts | 214° |
| 2026-05-07 17:39 | 43.55134 | -4.08913 | 2159 ft | 185 kts | 207° |
| 2026-05-07 17:39 | 43.53979 | -4.09674 | 2151 ft | 185 kts | 202° |
| 2026-05-07 17:40 | 43.52742 | -4.10135 | 2149 ft | 185 kts | 189° |
| 2026-05-07 17:40 | 43.51458 | -4.10181 | 2134 ft | 185 kts | 166° |
| 2026-05-07 17:40 | 43.50383 | -4.09271 | 2144 ft | 185 kts | 133° |
| 2026-05-07 17:40 | 43.49663 | -4.07832 | 2151 ft | 185 kts | 117° |
| 2026-05-07 17:41 | 43.49149 | -4.06194 | 2149 ft | 185 kts | 110° |
| 2026-05-07 17:41 | 43.48732 | -4.04544 | 2145 ft | 181 kts | 109° |
| 2026-05-07 17:41 | 43.48342 | -4.02991 | 2146 ft | 158 kts | 109° |
| 2026-05-07 17:41 | 43.47982 | -4.01606 | 2134 ft | 152 kts | 110° |
| 2026-05-07 17:42 | 43.47624 | -4.00267 | 2138 ft | 145 kts | 110° |
| 2026-05-07 17:42 | 43.47277 | -3.98985 | 2134 ft | 141 kts | 110° |
| 2026-05-07 17:42 | 43.46934 | -3.97721 | 2134 ft | 141 kts | 110° |
| 2026-05-07 17:42 | 43.46574 | -3.96395 | 1978 ft | 140 kts | 110° |
| 2026-05-07 17:43 | 43.46230 | -3.95126 | 1787 ft | 140 kts | 110° |
| 2026-05-07 17:43 | 43.45894 | -3.93883 | 1603 ft | 139 kts | 110° |
| 2026-05-07 17:43 | 43.45557 | -3.92631 | 1418 ft | 139 kts | 110° |
| 2026-05-07 17:43 | 43.45220 | -3.91379 | 1234 ft | 139 kts | 110° |
| 2026-05-07 17:44 | 43.44887 | -3.90138 | 1051 ft | 138 kts | 110° |
| 2026-05-07 17:44 | 43.44556 | -3.88907 | 869 ft | 138 kts | 110° |
| 2026-05-07 17:44 | 43.44225 | -3.87672 | 687 ft | 137 kts | 110° |
| 2026-05-07 17:44 | 43.43892 | -3.86430 | 503 ft | 137 kts | 110° |
| 2026-05-07 17:45 | 43.43557 | -3.85196 | 311 ft | 137 kts | 110° |
| 2026-05-07 17:45 | 43.43239 | -3.83979 | 140 ft | 136 kts | 110° |
| 2026-05-07 17:45 | 43.42913 | -3.82770 | 26 ft | 127 kts | 109° |
| 2026-05-07 17:45 | 43.42660 | -3.81823 | 25 ft | 81 kts | 110° |
| 2026-05-07 17:46 | 43.42525 | -3.81335 | 25 ft | 27 kts | 121° |
| 2026-05-07 17:46 | 43.42388 | -3.81354 | 25 ft | 20 kts | 217° |
| 2026-05-07 17:46 | 43.42409 | -3.81509 | 25 ft | 17 kts | 293° |
| 2026-05-07 17:46 | 43.42451 | -3.81664 | 25 ft | 16 kts | 289° |
| 2026-05-07 17:47 | 43.42487 | -3.81812 | 25 ft | 15 kts | 290° |
| 2026-05-07 17:47 | 43.42525 | -3.81957 | 25 ft | 15 kts | 290° |
| 2026-05-07 17:47 | 43.42502 | -3.82057 | 25 ft | 11 kts | 216° |
| 2026-05-07 17:47 | 43.42428 | -3.82096 | 25 ft | 11 kts | 199° |
| 2026-05-07 17:48 | 43.42395 | -3.82170 | 25 ft | 10 kts | 288° |
| 2026-05-07 17:48 | 43.42414 | -3.82246 | 25 ft | 5 kts | 249° |
| 2026-05-07 17:48 | 43.42392 | -3.82282 | 25 ft | 3 kts | 229° |
| 2026-05-07 17:48 | 43.42382 | -3.82301 | 25 ft | 0 kts | 236° |